DFOO/BOY METAR and TAF weather

Enter ICAO airport designator
Station Type Date Time Source
DFOO METAR 2019/08/19 01:00 UTC NOAA

DFOO 190100Z 18004KT 130V200 9999 TS FEW016 FEW033CB 26/23 Q1013


Station Type Date Time Source
DFOO Decoded METAR 2019/08/19 01:00 UTC NOAA

Station name not available
Aug 18, 2019 - 09:00 PM EDT / 2019.08.19 0100 UTC
Wind: from the S (180 degrees) at 5 MPH (4 KT) (direction variable):0
Visibility: greater than 7 mile(s):0
Sky conditions: mostly clear
Weather: thunder; Cumulonimbus clouds observed
Temperature: 78 F (26 C)
Dew Point: 73 F (23 C)
Relative Humidity: 83%
Pressure (altimeter): 29.91 in. Hg (1013 hPa)
ob: DFOO 190100Z 18004KT 130V200 9999 TS FEW016 FEW033CB 26/23 Q1013
cycle: 1

Station Type Date Time Source
DFOO TAF 2019/08/18 18:21 UTC NOAA

TAF DFOO 181700Z 1818/1918 20008KT 9999 SCT016
TEMPO 1818/1902 4000 TSRA SCT016 FEW030CB

Example: see airport list